sensor_id;sensor_type;location;lat;lon;timestamp;pressure;altitude;pressure_sealevel;temperature;humidity
39729;BME280;25402;42.004;23.088;2024-01-30T00:00:30;99348.19;;;-2.10;39.96
39729;BME280;25402;42.004;23.088;2024-01-30T00:02:57;99349.09;;;-2.11;40.05
39729;BME280;25402;42.004;23.088;2024-01-30T00:05:24;99332.03;;;-2.26;40.04
39729;BME280;25402;42.004;23.088;2024-01-30T00:07:51;99338.19;;;-2.26;40.21
39729;BME280;25402;42.004;23.088;2024-01-30T00:10:20;99358.22;;;-2.19;40.38
39729;BME280;25402;42.004;23.088;2024-01-30T00:12:47;99353.53;;;-2.56;40.79
39729;BME280;25402;42.004;23.088;2024-01-30T00:15:14;99363.94;;;-2.51;40.76
39729;BME280;25402;42.004;23.088;2024-01-30T00:17:41;99372.31;;;-2.62;40.59
39729;BME280;25402;42.004;23.088;2024-01-30T00:20:09;99374.69;;;-2.54;40.66
39729;BME280;25402;42.004;23.088;2024-01-30T00:22:37;99360.63;;;-2.56;40.80
39729;BME280;25402;42.004;23.088;2024-01-30T00:25:04;99372.03;;;-2.54;40.95
39729;BME280;25402;42.004;23.088;2024-01-30T00:27:33;99362.09;;;-2.49;40.84
39729;BME280;25402;42.004;23.088;2024-01-30T00:30:00;99358.41;;;-2.68;40.69
39729;BME280;25402;42.004;23.088;2024-01-30T00:32:27;99361.84;;;-3.13;41.53
39729;BME280;25402;42.004;23.088;2024-01-30T00:34:54;99370.94;;;-2.97;41.21
39729;BME280;25402;42.004;23.088;2024-01-30T00:37:22;99372.47;;;-2.90;40.79
39729;BME280;25402;42.004;23.088;2024-01-30T00:39:49;99373.72;;;-3.00;40.68
39729;BME280;25402;42.004;23.088;2024-01-30T00:42:16;99362.53;;;-3.31;40.91
39729;BME280;25402;42.004;23.088;2024-01-30T00:44:44;99369.41;;;-3.02;40.86
39729;BME280;25402;42.004;23.088;2024-01-30T00:47:11;99333.63;;;-3.14;40.92
39729;BME280;25402;42.004;23.088;2024-01-30T00:49:38;99364.28;;;-2.83;40.60
39729;BME280;25402;42.004;23.088;2024-01-30T00:52:06;99365.88;;;-2.79;40.43
39729;BME280;25402;42.004;23.088;2024-01-30T00:54:33;99359.78;;;-2.81;40.74
39729;BME280;25402;42.004;23.088;2024-01-30T00:57:00;99363.22;;;-2.79;40.76
39729;BME280;25402;42.004;23.088;2024-01-30T00:59:27;99367.63;;;-2.78;40.67
39729;BME280;25402;42.004;23.088;2024-01-30T01:01:56;99369.59;;;-2.83;40.70
39729;BME280;25402;42.004;23.088;2024-01-30T01:04:23;99371.66;;;-2.92;40.66
39729;BME280;25402;42.004;23.088;2024-01-30T01:06:50;99343.75;;;-3.00;40.66
39729;BME280;25402;42.004;23.088;2024-01-30T01:09:17;99379.31;;;-2.84;40.43
39729;BME280;25402;42.004;23.088;2024-01-30T01:11:44;99372.34;;;-2.87;40.61
39729;BME280;25402;42.004;23.088;2024-01-30T01:14:11;99371.53;;;-2.89;40.70
39729;BME280;25402;42.004;23.088;2024-01-30T01:16:38;99365.28;;;-3.11;40.53
39729;BME280;25402;42.004;23.088;2024-01-30T01:19:07;99375.84;;;-3.09;40.52
39729;BME280;25402;42.004;23.088;2024-01-30T01:21:34;99361.84;;;-3.13;40.64
39729;BME280;25402;42.004;23.088;2024-01-30T01:24:01;99357.00;;;-3.25;40.31
39729;BME280;25402;42.004;23.088;2024-01-30T01:26:28;99361.66;;;-3.57;41.06
39729;BME280;25402;42.004;23.088;2024-01-30T01:28:55;99360.44;;;-3.73;42.08
39729;BME280;25402;42.004;23.088;2024-01-30T01:31:22;99364.94;;;-4.01;42.85
39729;BME280;25402;42.004;23.088;2024-01-30T01:33:50;99356.13;;;-3.75;42.21
39729;BME280;25402;42.004;23.088;2024-01-30T01:36:18;99332.22;;;-3.72;41.99
39729;BME280;25402;42.004;23.088;2024-01-30T01:38:46;99353.81;;;-3.60;42.03
39729;BME280;25402;42.004;23.088;2024-01-30T01:41:13;99360.63;;;-3.52;41.83
39729;BME280;25402;42.004;23.088;2024-01-30T01:43:40;99356.88;;;-3.72;41.97
39729;BME280;25402;42.004;23.088;2024-01-30T01:46:07;99360.25;;;-3.67;41.74
39729;BME280;25402;42.004;23.088;2024-01-30T01:48:35;99322.66;;;-3.76;41.34
39729;BME280;25402;42.004;23.088;2024-01-30T01:51:05;99350.16;;;-3.56;41.01
39729;BME280;25402;42.004;23.088;2024-01-30T01:53:34;99363.84;;;-3.44;41.32
39729;BME280;25402;42.004;23.088;2024-01-30T01:56:02;99355.88;;;-3.43;41.07
39729;BME280;25402;42.004;23.088;2024-01-30T01:58:29;99363.19;;;-3.49;41.27
39729;BME280;25402;42.004;23.088;2024-01-30T02:00:56;99357.69;;;-3.45;41.34
39729;BME280;25402;42.004;23.088;2024-01-30T02:03:23;99365.53;;;-3.42;41.43
39729;BME280;25402;42.004;23.088;2024-01-30T02:05:51;99354.28;;;-3.47;41.26
39729;BME280;25402;42.004;23.088;2024-01-30T02:08:18;99365.63;;;-3.45;41.05
39729;BME280;25402;42.004;23.088;2024-01-30T02:10:47;99364.03;;;-3.49;41.15
39729;BME280;25402;42.004;23.088;2024-01-30T02:13:14;99364.91;;;-3.48;41.14
39729;BME280;25402;42.004;23.088;2024-01-30T02:15:41;99365.63;;;-3.45;41.03
39729;BME280;25402;42.004;23.088;2024-01-30T02:18:08;99370.16;;;-3.47;40.84
39729;BME280;25402;42.004;23.088;2024-01-30T02:20:35;99337.94;;;-3.60;40.96
39729;BME280;25402;42.004;23.088;2024-01-30T02:23:04;99330.22;;;-3.66;40.85
39729;BME280;25402;42.004;23.088;2024-01-30T02:25:33;99338.97;;;-3.64;40.83
39729;BME280;25402;42.004;23.088;2024-01-30T02:28:00;99364.00;;;-3.47;40.58
39729;BME280;25402;42.004;23.088;2024-01-30T02:30:27;99347.59;;;-3.59;40.76
39729;BME280;25402;42.004;23.088;2024-01-30T02:32:54;99334.41;;;-3.60;40.67
39729;BME280;25402;42.004;23.088;2024-01-30T02:35:21;99370.06;;;-3.45;40.26
39729;BME280;25402;42.004;23.088;2024-01-30T02:37:48;99349.72;;;-3.68;39.60
39729;BME280;25402;42.004;23.088;2024-01-30T02:40:17;99340.09;;;-3.71;39.76
39729;BME280;25402;42.004;23.088;2024-01-30T02:42:44;99373.88;;;-3.52;39.58
39729;BME280;25402;42.004;23.088;2024-01-30T02:45:12;99362.19;;;-3.72;39.60
39729;BME280;25402;42.004;23.088;2024-01-30T02:47:40;99370.84;;;-3.67;39.82
39729;BME280;25402;42.004;23.088;2024-01-30T02:50:08;99378.38;;;-3.81;40.59
39729;BME280;25402;42.004;23.088;2024-01-30T02:52:35;99379.09;;;-3.77;40.22
39729;BME280;25402;42.004;23.088;2024-01-30T02:55:02;99374.22;;;-3.89;40.48
39729;BME280;25402;42.004;23.088;2024-01-30T02:57:31;99373.41;;;-4.18;40.65
39729;BME280;25402;42.004;23.088;2024-01-30T03:00:00;99388.13;;;-4.37;41.32
39729;BME280;25402;42.004;23.088;2024-01-30T03:02:29;99389.91;;;-4.67;41.90
39729;BME280;25402;42.004;23.088;2024-01-30T03:04:56;99380.44;;;-5.04;42.98
39729;BME280;25402;42.004;23.088;2024-01-30T03:07:23;99383.34;;;-4.54;41.99
39729;BME280;25402;42.004;23.088;2024-01-30T03:09:50;99378.41;;;-4.37;41.80
39729;BME280;25402;42.004;23.088;2024-01-30T03:12:18;99377.09;;;-4.23;41.42
39729;BME280;25402;42.004;23.088;2024-01-30T03:14:46;99372.38;;;-4.12;41.33
39729;BME280;25402;42.004;23.088;2024-01-30T03:17:14;99373.88;;;-4.05;41.11
39729;BME280;25402;42.004;23.088;2024-01-30T03:19:42;99370.91;;;-3.95;40.68
39729;BME280;25402;42.004;23.088;2024-01-30T03:22:09;99369.66;;;-3.84;40.95
39729;BME280;25402;42.004;23.088;2024-01-30T03:24:36;99367.78;;;-3.81;40.71
39729;BME280;25402;42.004;23.088;2024-01-30T03:27:03;99371.06;;;-2.76;52.86
39729;BME280;25402;42.004;23.088;2024-01-30T03:29:30;99370.22;;;-0.87;40.88
39729;BME280;25402;42.004;23.088;2024-01-30T03:32:01;99358.72;;;-0.12;39.67
39729;BME280;25402;42.004;23.088;2024-01-30T03:34:29;99359.16;;;2.13;35.50
39729;BME280;25402;42.004;23.088;2024-01-30T03:36:56;99341.09;;;3.90;32.06
39729;BME280;25402;42.004;23.088;2024-01-30T03:39:23;99351.88;;;4.81;30.35
39729;BME280;25402;42.004;23.088;2024-01-30T03:41:50;99351.69;;;4.18;30.08
39729;BME280;25402;42.004;23.088;2024-01-30T03:44:17;99365.47;;;3.44;30.53
39729;BME280;25402;42.004;23.088;2024-01-30T03:46:45;99366.44;;;2.85;30.86
39729;BME280;25402;42.004;23.088;2024-01-30T03:49:14;99368.78;;;2.31;31.04
39729;BME280;25402;42.004;23.088;2024-01-30T03:51:41;99361.09;;;1.30;31.02
39729;BME280;25402;42.004;23.088;2024-01-30T03:54:08;99376.19;;;0.64;32.01
39729;BME280;25402;42.004;23.088;2024-01-30T03:56:35;99358.06;;;0.02;32.46
39729;BME280;25402;42.004;23.088;2024-01-30T03:59:02;99366.50;;;-0.45;33.14
39729;BME280;25402;42.004;23.088;2024-01-30T04:01:29;99357.28;;;-0.76;33.77
39729;BME280;25402;42.004;23.088;2024-01-30T04:03:56;99374.88;;;-0.92;33.73
39729;BME280;25402;42.004;23.088;2024-01-30T04:06:24;99374.94;;;-1.12;34.33
39729;BME280;25402;42.004;23.088;2024-01-30T04:08:52;99373.13;;;-1.32;34.65
39729;BME280;25402;42.004;23.088;2024-01-30T04:11:19;99348.16;;;-1.68;34.97
39729;BME280;25402;42.004;23.088;2024-01-30T04:13:46;99371.31;;;-1.72;35.54
39729;BME280;25402;42.004;23.088;2024-01-30T04:16:19;99381.97;;;-1.94;36.19
39729;BME280;25402;42.004;23.088;2024-01-30T04:18:47;99379.50;;;-2.20;36.83
39729;BME280;25402;42.004;23.088;2024-01-30T04:21:14;99360.56;;;-2.55;37.38
39729;BME280;25402;42.004;23.088;2024-01-30T04:23:42;99377.63;;;-2.63;37.82
39729;BME280;25402;42.004;23.088;2024-01-30T04:26:09;99374.56;;;-3.23;38.77
39729;BME280;25402;42.004;23.088;2024-01-30T04:28:36;99385.25;;;-3.77;39.88
39729;BME280;25402;42.004;23.088;2024-01-30T04:31:04;99344.53;;;-3.46;50.00
39729;BME280;25402;42.004;23.088;2024-01-30T04:33:31;99381.78;;;-1.47;43.31
39729;BME280;25402;42.004;23.088;2024-01-30T04:35:58;99380.75;;;-1.65;42.84
39729;BME280;25402;42.004;23.088;2024-01-30T04:38:25;99394.16;;;-0.30;38.89
39729;BME280;25402;42.004;23.088;2024-01-30T04:40:53;99364.50;;;-0.40;34.16
39729;BME280;25402;42.004;23.088;2024-01-30T04:43:20;99361.19;;;-0.08;38.84
39729;BME280;25402;42.004;23.088;2024-01-30T04:45:49;99378.00;;;0.29;33.06
39729;BME280;25402;42.004;23.088;2024-01-30T04:48:16;99380.00;;;-0.87;36.19
39729;BME280;25402;42.004;23.088;2024-01-30T04:50:43;99397.03;;;0.03;39.43
39729;BME280;25402;42.004;23.088;2024-01-30T04:53:10;99391.16;;;0.49;32.73
39729;BME280;25402;42.004;23.088;2024-01-30T04:55:37;99403.03;;;-0.88;33.89
39729;BME280;25402;42.004;23.088;2024-01-30T04:58:05;99411.44;;;0.35;38.58
39729;BME280;25402;42.004;23.088;2024-01-30T05:00:33;99388.59;;;1.64;36.11
39729;BME280;25402;42.004;23.088;2024-01-30T05:03:00;99399.47;;;2.54;34.71
39729;BME280;25402;42.004;23.088;2024-01-30T05:05:27;99403.09;;;3.55;32.63
39729;BME280;25402;42.004;23.088;2024-01-30T05:07:55;99403.88;;;3.29;30.88
39729;BME280;25402;42.004;23.088;2024-01-30T05:10:22;99404.81;;;2.54;29.40
39729;BME280;25402;42.004;23.088;2024-01-30T05:12:49;99414.28;;;1.82;30.35
39729;BME280;25402;42.004;23.088;2024-01-30T05:15:18;99415.50;;;1.44;31.12
39729;BME280;25402;42.004;23.088;2024-01-30T05:17:46;99415.66;;;1.08;31.55
39729;BME280;25402;42.004;23.088;2024-01-30T05:20:13;99412.53;;;0.82;31.74
39729;BME280;25402;42.004;23.088;2024-01-30T05:22:41;99397.25;;;0.34;32.37
39729;BME280;25402;42.004;23.088;2024-01-30T05:25:13;99413.53;;;0.28;32.49
39729;BME280;25402;42.004;23.088;2024-01-30T05:27:40;99389.38;;;-0.03;32.68
39729;BME280;25402;42.004;23.088;2024-01-30T05:30:08;99410.66;;;-0.03;33.03
39729;BME280;25402;42.004;23.088;2024-01-30T05:32:36;99429.25;;;-0.22;33.14
39729;BME280;25402;42.004;23.088;2024-01-30T05:35:04;99407.97;;;-0.99;34.07
39729;BME280;25402;42.004;23.088;2024-01-30T05:37:31;99405.47;;;-2.06;35.74
39729;BME280;25402;42.004;23.088;2024-01-30T05:39:58;99425.88;;;-1.87;35.94
39729;BME280;25402;42.004;23.088;2024-01-30T05:42:26;99414.78;;;-2.18;36.14
39729;BME280;25402;42.004;23.088;2024-01-30T05:44:53;99424.03;;;-2.52;36.84
39729;BME280;25402;42.004;23.088;2024-01-30T05:47:20;99423.16;;;-2.75;37.39
39729;BME280;25402;42.004;23.088;2024-01-30T05:49:49;99426.97;;;-2.59;37.62
39729;BME280;25402;42.004;23.088;2024-01-30T05:52:16;99398.81;;;-2.38;40.92
39729;BME280;25402;42.004;23.088;2024-01-30T05:54:44;99410.78;;;-1.42;39.80
39729;BME280;25402;42.004;23.088;2024-01-30T05:57:11;99426.63;;;-1.41;36.07
39729;BME280;25402;42.004;23.088;2024-01-30T05:59:39;99430.16;;;-1.00;39.05
39729;BME280;25402;42.004;23.088;2024-01-30T06:02:06;99429.97;;;-0.37;34.83
39729;BME280;25402;42.004;23.088;2024-01-30T06:04:33;99425.34;;;-0.92;34.84
39729;BME280;25402;42.004;23.088;2024-01-30T06:07:01;99425.31;;;-1.31;35.10
39729;BME280;25402;42.004;23.088;2024-01-30T06:09:28;99402.38;;;-2.18;35.87
39729;BME280;25402;42.004;23.088;2024-01-30T06:11:56;99436.97;;;-2.67;37.94
39729;BME280;25402;42.004;23.088;2024-01-30T06:14:23;99440.31;;;-2.62;36.95
39729;BME280;25402;42.004;23.088;2024-01-30T06:16:50;99444.44;;;-3.02;37.58
39729;BME280;25402;42.004;23.088;2024-01-30T06:19:17;99432.91;;;-3.01;37.64
39729;BME280;25402;42.004;23.088;2024-01-30T06:21:44;99438.94;;;-3.47;38.45
39729;BME280;25402;42.004;23.088;2024-01-30T06:24:13;99452.34;;;-3.51;38.46
39729;BME280;25402;42.004;23.088;2024-01-30T06:26:40;99417.31;;;-3.86;39.33
39729;BME280;25402;42.004;23.088;2024-01-30T06:29:07;99452.81;;;-3.40;39.18
39729;BME280;25402;42.004;23.088;2024-01-30T06:31:40;99451.72;;;-3.33;38.83
39729;BME280;25402;42.004;23.088;2024-01-30T06:34:07;99449.47;;;-3.45;39.10
39729;BME280;25402;42.004;23.088;2024-01-30T06:36:34;99419.81;;;-3.55;38.91
39729;BME280;25402;42.004;23.088;2024-01-30T06:39:01;99450.78;;;-3.32;39.25
39729;BME280;25402;42.004;23.088;2024-01-30T06:41:30;99454.13;;;-3.27;39.45
39729;BME280;25402;42.004;23.088;2024-01-30T06:43:57;99460.84;;;-3.17;39.51
39729;BME280;25402;42.004;23.088;2024-01-30T06:46:24;99426.06;;;-3.31;39.75
39729;BME280;25402;42.004;23.088;2024-01-30T06:48:51;99447.22;;;-3.06;39.66
39729;BME280;25402;42.004;23.088;2024-01-30T06:51:18;99465.28;;;-2.93;39.60
39729;BME280;25402;42.004;23.088;2024-01-30T06:53:45;99461.19;;;-2.78;39.49
39729;BME280;25402;42.004;23.088;2024-01-30T06:56:15;99453.84;;;-2.70;39.41
39729;BME280;25402;42.004;23.088;2024-01-30T06:58:47;99446.56;;;-2.65;39.22
39729;BME280;25402;42.004;23.088;2024-01-30T07:01:14;99457.50;;;-2.49;39.30
39729;BME280;25402;42.004;23.088;2024-01-30T07:03:41;99463.03;;;-2.32;39.14
39729;BME280;25402;42.004;23.088;2024-01-30T07:06:09;99465.47;;;-2.26;39.27
39729;BME280;25402;42.004;23.088;2024-01-30T07:08:36;99448.38;;;-2.19;38.97
39729;BME280;25402;42.004;23.088;2024-01-30T07:11:04;99455.78;;;-2.27;39.29
39729;BME280;25402;42.004;23.088;2024-01-30T07:13:32;99439.19;;;-2.32;39.28
39729;BME280;25402;42.004;23.088;2024-01-30T07:16:01;99440.06;;;-2.09;39.42
39729;BME280;25402;42.004;23.088;2024-01-30T07:18:28;99459.38;;;-1.84;38.86
39729;BME280;25402;42.004;23.088;2024-01-30T07:20:55;99454.22;;;-1.65;38.74
39729;BME280;25402;42.004;23.088;2024-01-30T07:23:22;99456.28;;;-1.52;38.32
39729;BME280;25402;42.004;23.088;2024-01-30T07:25:52;99451.19;;;-1.36;37.82
39729;BME280;25402;42.004;23.088;2024-01-30T07:28:20;99447.94;;;-1.22;37.43
39729;BME280;25402;42.004;23.088;2024-01-30T07:30:47;99446.34;;;-1.06;37.17
39729;BME280;25402;42.004;23.088;2024-01-30T07:33:17;99444.88;;;-0.93;36.90
39729;BME280;25402;42.004;23.088;2024-01-30T07:35:45;99445.22;;;-0.80;37.17
39729;BME280;25402;42.004;23.088;2024-01-30T07:38:12;99446.41;;;-0.67;36.66
39729;BME280;25402;42.004;23.088;2024-01-30T07:40:39;99416.75;;;-0.78;35.85
39729;BME280;25402;42.004;23.088;2024-01-30T07:43:07;99442.53;;;-0.41;35.59
39729;BME280;25402;42.004;23.088;2024-01-30T07:45:34;99446.50;;;-0.31;35.72
39729;BME280;25402;42.004;23.088;2024-01-30T07:48:03;99454.81;;;-0.18;35.57
39729;BME280;25402;42.004;23.088;2024-01-30T07:50:32;99451.78;;;-0.11;35.62
39729;BME280;25402;42.004;23.088;2024-01-30T07:52:59;99452.13;;;0.01;35.30
39729;BME280;25402;42.004;23.088;2024-01-30T07:55:27;99446.94;;;0.16;35.11
39729;BME280;25402;42.004;23.088;2024-01-30T07:57:54;99446.28;;;0.30;35.10
39729;BME280;25402;42.004;23.088;2024-01-30T08:00:22;99414.50;;;0.44;36.13
39729;BME280;25402;42.004;23.088;2024-01-30T08:02:49;99433.00;;;0.64;34.67
39729;BME280;25402;42.004;23.088;2024-01-30T08:05:16;99435.34;;;0.71;33.81
39729;BME280;25402;42.004;23.088;2024-01-30T08:07:44;99429.31;;;0.84;33.42
39729;BME280;25402;42.004;23.088;2024-01-30T08:10:12;99425.41;;;0.91;33.16
39729;BME280;25402;42.004;23.088;2024-01-30T08:12:39;99428.06;;;1.09;32.66
39729;BME280;25402;42.004;23.088;2024-01-30T08:15:07;99434.19;;;1.26;32.80
39729;BME280;25402;42.004;23.088;2024-01-30T08:17:34;99432.78;;;1.37;33.73
39729;BME280;25402;42.004;23.088;2024-01-30T08:20:01;99423.16;;;1.50;31.91
39729;BME280;25402;42.004;23.088;2024-01-30T08:22:30;99427.56;;;1.51;31.12
39729;BME280;25402;42.004;23.088;2024-01-30T08:24:58;99425.69;;;1.53;31.16
39729;BME280;25402;42.004;23.088;2024-01-30T08:27:26;99423.00;;;1.70;31.31
39729;BME280;25402;42.004;23.088;2024-01-30T08:29:53;99421.97;;;1.73;30.69
39729;BME280;25402;42.004;23.088;2024-01-30T08:32:20;99419.50;;;1.68;30.89
39729;BME280;25402;42.004;23.088;2024-01-30T08:34:47;99397.03;;;1.56;31.26
39729;BME280;25402;42.004;23.088;2024-01-30T08:37:14;99431.00;;;1.53;30.39
39729;BME280;25402;42.004;23.088;2024-01-30T08:39:42;99413.84;;;1.74;30.38
39729;BME280;25402;42.004;23.088;2024-01-30T08:42:10;99413.34;;;1.83;30.26
39729;BME280;25402;42.004;23.088;2024-01-30T08:44:38;99397.81;;;1.74;30.34
39729;BME280;25402;42.004;23.088;2024-01-30T08:47:05;99417.03;;;1.81;30.38
39729;BME280;25402;42.004;23.088;2024-01-30T08:49:32;99422.13;;;2.01;30.28
39729;BME280;25402;42.004;23.088;2024-01-30T08:51:59;99422.81;;;2.20;29.95
39729;BME280;25402;42.004;23.088;2024-01-30T08:54:26;99407.44;;;2.39;29.99
39729;BME280;25402;42.004;23.088;2024-01-30T08:56:53;99415.84;;;2.63;29.97
39729;BME280;25402;42.004;23.088;2024-01-30T08:59:23;99407.69;;;2.81;29.97
39729;BME280;25402;42.004;23.088;2024-01-30T09:01:51;99406.44;;;2.86;29.43
39729;BME280;25402;42.004;23.088;2024-01-30T09:04:20;99418.88;;;2.57;28.59
39729;BME280;25402;42.004;23.088;2024-01-30T09:06:48;99414.28;;;1.82;28.56
39729;BME280;25402;42.004;23.088;2024-01-30T09:09:15;99403.53;;;1.84;28.78
39729;BME280;25402;42.004;23.088;2024-01-30T09:11:43;99401.72;;;1.84;29.24
39729;BME280;25402;42.004;23.088;2024-01-30T09:14:10;99397.50;;;1.31;28.98
39729;BME280;25402;42.004;23.088;2024-01-30T09:16:38;99384.56;;;0.91;29.49
39729;BME280;25402;42.004;23.088;2024-01-30T09:19:12;99386.66;;;1.02;29.69
39729;BME280;25402;42.004;23.088;2024-01-30T09:21:44;99343.75;;;0.73;29.75
39729;BME280;25402;42.004;23.088;2024-01-30T09:24:11;99382.44;;;0.97;29.76
39729;BME280;25402;42.004;23.088;2024-01-30T09:26:39;99388.94;;;1.09;29.67
39729;BME280;25402;42.004;23.088;2024-01-30T09:29:06;99386.38;;;0.90;29.77
39729;BME280;25402;42.004;23.088;2024-01-30T09:31:33;99386.38;;;0.56;30.37
39729;BME280;25402;42.004;23.088;2024-01-30T09:34:01;99379.84;;;0.79;29.99
39729;BME280;25402;42.004;23.088;2024-01-30T09:36:28;99378.53;;;0.87;29.98
39729;BME280;25402;42.004;23.088;2024-01-30T09:38:55;99330.09;;;0.79;30.04
39729;BME280;25402;42.004;23.088;2024-01-30T09:41:24;99352.41;;;0.61;30.43
39729;BME280;25402;42.004;23.088;2024-01-30T09:43:51;99390.84;;;0.73;29.99
39729;BME280;25402;42.004;23.088;2024-01-30T09:46:21;99358.44;;;0.97;29.79
39729;BME280;25402;42.004;23.088;2024-01-30T09:48:52;99350.31;;;1.16;29.65
39729;BME280;25402;42.004;23.088;2024-01-30T09:51:21;99359.09;;;1.18;29.33
39729;BME280;25402;42.004;23.088;2024-01-30T09:53:49;99362.66;;;1.34;29.25
39729;BME280;25402;42.004;23.088;2024-01-30T09:56:16;99359.84;;;1.38;28.97
39729;BME280;25402;42.004;23.088;2024-01-30T09:58:47;99329.19;;;1.45;28.65
39729;BME280;25402;42.004;23.088;2024-01-30T10:01:15;99341.84;;;1.41;29.04
39729;BME280;25402;42.004;23.088;2024-01-30T10:03:44;99308.31;;;1.37;28.77
39729;BME280;25402;42.004;23.088;2024-01-30T10:06:11;99343.47;;;1.44;28.97
39729;BME280;25402;42.004;23.088;2024-01-30T10:08:41;99339.00;;;1.44;28.86
39729;BME280;25402;42.004;23.088;2024-01-30T10:11:09;99306.03;;;1.61;28.76
39729;BME280;25402;42.004;23.088;2024-01-30T10:13:36;99324.13;;;1.40;28.67
39729;BME280;25402;42.004;23.088;2024-01-30T10:16:06;99333.34;;;1.50;28.42
39729;BME280;25402;42.004;23.088;2024-01-30T10:18:33;99325.50;;;1.47;29.65
39729;BME280;25402;42.004;23.088;2024-01-30T10:21:00;99301.22;;;1.99;34.41
39729;BME280;25402;42.004;23.088;2024-01-30T10:23:29;99316.41;;;2.87;32.93
39729;BME280;25402;42.004;23.088;2024-01-30T10:25:58;99317.00;;;3.34;28.57
39729;BME280;25402;42.004;23.088;2024-01-30T10:28:27;99305.53;;;3.32;29.01
39729;BME280;25402;42.004;23.088;2024-01-30T10:30:58;99300.34;;;3.58;28.83
39729;BME280;25402;42.004;23.088;2024-01-30T10:33:27;99271.03;;;3.96;29.53
39729;BME280;25402;42.004;23.088;2024-01-30T10:36:00;99288.63;;;4.00;28.04
39729;BME280;25402;42.004;23.088;2024-01-30T10:38:28;99272.50;;;4.14;29.05
39729;BME280;25402;42.004;23.088;2024-01-30T10:40:59;99257.84;;;4.32;28.01
39729;BME280;25402;42.004;23.088;2024-01-30T10:43:31;99276.41;;;4.48;29.55
39729;BME280;25402;42.004;23.088;2024-01-30T10:46:07;99279.56;;;4.93;28.48
39729;BME280;25402;42.004;23.088;2024-01-30T10:48:36;99276.53;;;4.59;25.11
39729;BME280;25402;42.004;23.088;2024-01-30T10:51:09;99260.28;;;3.83;25.89
39729;BME280;25402;42.004;23.088;2024-01-30T10:53:38;99273.09;;;3.51;25.95
39729;BME280;25402;42.004;23.088;2024-01-30T10:56:08;99272.75;;;3.43;26.43
39729;BME280;25402;42.004;23.088;2024-01-30T10:58:37;99269.03;;;3.31;26.73
39729;BME280;25402;42.004;23.088;2024-01-30T11:01:05;99269.03;;;3.17;26.77
39729;BME280;25402;42.004;23.088;2024-01-30T11:03:33;99256.28;;;3.49;26.71
39729;BME280;25402;42.004;23.088;2024-01-30T11:06:02;99244.72;;;3.49;26.42
39729;BME280;25402;42.004;23.088;2024-01-30T11:08:32;99247.81;;;3.42;26.40
39729;BME280;25402;42.004;23.088;2024-01-30T11:10:59;99224.53;;;3.02;26.88
39729;BME280;25402;42.004;23.088;2024-01-30T11:13:29;99240.38;;;3.33;26.74
39729;BME280;25402;42.004;23.088;2024-01-30T11:16:00;99222.81;;;3.01;26.67
39729;BME280;25402;42.004;23.088;2024-01-30T11:18:29;99243.81;;;3.62;27.01
39729;BME280;25402;42.004;23.088;2024-01-30T11:20:57;99216.94;;;3.64;26.29
39729;BME280;25402;42.004;23.088;2024-01-30T11:23:26;99232.41;;;3.73;26.38
39729;BME280;25402;42.004;23.088;2024-01-30T11:25:53;99194.09;;;3.46;26.39
39729;BME280;25402;42.004;23.088;2024-01-30T11:28:21;99208.06;;;3.90;26.38
39729;BME280;25402;42.004;23.088;2024-01-30T11:30:50;99205.56;;;3.74;25.99
39729;BME280;25402;42.004;23.088;2024-01-30T11:33:27;99205.75;;;3.71;26.19
39729;BME280;25402;42.004;23.088;2024-01-30T11:35:57;99213.41;;;3.36;26.47
39729;BME280;25402;42.004;23.088;2024-01-30T11:38:27;99222.00;;;3.41;26.55
39729;BME280;25402;42.004;23.088;2024-01-30T11:40:55;99210.34;;;3.42;26.29
39729;BME280;25402;42.004;23.088;2024-01-30T11:43:23;99195.66;;;3.35;26.20
39729;BME280;25402;42.004;23.088;2024-01-30T11:45:51;99211.34;;;3.27;26.71
39729;BME280;25402;42.004;23.088;2024-01-30T11:48:18;99189.00;;;3.00;26.92
39729;BME280;25402;42.004;23.088;2024-01-30T11:50:46;99194.59;;;3.24;26.69
39729;BME280;25402;42.004;23.088;2024-01-30T11:53:13;99193.03;;;3.07;26.87
39729;BME280;25402;42.004;23.088;2024-01-30T11:55:41;99165.56;;;2.91;27.18
39729;BME280;25402;42.004;23.088;2024-01-30T11:58:08;99193.75;;;3.37;26.83
39729;BME280;25402;42.004;23.088;2024-01-30T12:00:35;99176.66;;;3.53;26.88
39729;BME280;25402;42.004;23.088;2024-01-30T12:03:04;99179.72;;;3.61;26.55
39729;BME280;25402;42.004;23.088;2024-01-30T12:05:32;99184.09;;;3.62;26.42
39729;BME280;25402;42.004;23.088;2024-01-30T12:07:59;99170.91;;;4.11;26.32
39729;BME280;25402;42.004;23.088;2024-01-30T12:10:26;99163.50;;;4.14;25.83
39729;BME280;25402;42.004;23.088;2024-01-30T12:12:54;99150.66;;;4.20;25.96
39729;BME280;25402;42.004;23.088;2024-01-30T12:15:22;99158.78;;;3.53;26.53
39729;BME280;25402;42.004;23.088;2024-01-30T12:17:50;99148.56;;;3.60;26.60
39729;BME280;25402;42.004;23.088;2024-01-30T12:20:19;99137.34;;;3.80;26.67
39729;BME280;25402;42.004;23.088;2024-01-30T12:22:48;99142.56;;;3.29;27.11
39729;BME280;25402;42.004;23.088;2024-01-30T12:25:16;99147.59;;;3.61;26.91
39729;BME280;25402;42.004;23.088;2024-01-30T12:27:44;99148.00;;;3.55;26.87
39729;BME280;25402;42.004;23.088;2024-01-30T12:30:13;99148.94;;;3.54;27.11
39729;BME280;25402;42.004;23.088;2024-01-30T12:32:41;99160.44;;;3.15;27.56
39729;BME280;25402;42.004;23.088;2024-01-30T12:35:10;99133.81;;;2.44;28.42
39729;BME280;25402;42.004;23.088;2024-01-30T12:37:38;99128.63;;;2.69;28.18
39729;BME280;25402;42.004;23.088;2024-01-30T12:40:07;99126.69;;;2.85;28.19
39729;BME280;25402;42.004;23.088;2024-01-30T12:42:35;99139.78;;;2.90;27.86
39729;BME280;25402;42.004;23.088;2024-01-30T12:45:02;99127.88;;;2.53;28.59
39729;BME280;25402;42.004;23.088;2024-01-30T12:47:30;99119.75;;;2.68;28.43
39729;BME280;25402;42.004;23.088;2024-01-30T12:49:57;99119.13;;;2.51;28.47
39729;BME280;25402;42.004;23.088;2024-01-30T12:52:24;99113.28;;;2.58;28.35
39729;BME280;25402;42.004;23.088;2024-01-30T12:54:53;99128.91;;;2.79;28.16
39729;BME280;25402;42.004;23.088;2024-01-30T12:57:20;99137.50;;;2.69;28.09